Time;durP1;ratioP1;P1;durP2;ratioP2;P2;SDS_P1;SDS_P2;PMS_P1;PMS_P2;Temp;Humidity;BMP_temperature;BMP_pressure;BME280_temperature;BME280_humidity;BME280_pressure;Samples;Min_cycle;Max_cycle;Signal;HPM_P1;HPM_P2
2022/09/06 00:02:46;;;;;;;;;;;;;;;21.50;50.59;100938.25;5427134;32;34495;-68
2022/09/06 00:05:48;;;;;;;;;;;;;;;22.57;48.02;100925.37;5409215;32;45073;-88
2022/09/06 00:08:50;;;;;;;;;;;;;;;22.69;47.50;100924.38;5429059;32;34552;-69
2022/09/06 00:11:52;;;;;;;;;;;;;;;22.08;49.22;100936.44;5421971;32;36153;-69
2022/09/06 00:14:54;;;;;;;;;;;;;;;22.44;48.54;100927.34;5434526;32;35608;-69
2022/09/06 00:17:59;;;;;;;;;;;;;;;22.90;47.25;100929.00;5412543;32;35028;-77
2022/09/06 00:21:03;;;;;;;;;;;;;;;23.19;46.61;100930.12;5412523;32;35353;-87
2022/09/06 00:24:05;;;;;;;;;;;;;;;22.12;49.10;100925.41;5437309;32;35529;-69
2022/09/06 00:27:07;;;;;;;;;;;;;;;21.58;51.64;100923.34;5425102;32;34977;-69
2022/09/06 00:30:09;;;;;;;;;;;;;;;21.48;52.06;100935.72;5432769;32;34179;-77
2022/09/06 00:33:12;;;;;;;;;;;;;;;22.44;49.56;100925.50;5414109;32;34807;-69
2022/09/06 00:36:14;;;;;;;;;;;;;;;22.94;48.01;100928.63;5430993;32;34833;-87
2022/09/06 00:39:16;;;;;;;;;;;;;;;21.88;50.99;100936.16;5421404;32;34893;-69
2022/09/06 00:42:17;;;;;;;;;;;;;;;21.31;52.74;100941.47;5411810;32;45443;-87
2022/09/06 00:45:19;;;;;;;;;;;;;;;20.75;54.87;100943.84;5433539;32;35662;-69
2022/09/06 00:48:21;;;;;;;;;;;;;;;21.67;52.65;100926.28;5418114;32;34070;-88
2022/09/06 00:51:24;;;;;;;;;;;;;;;21.24;53.49;100940.19;5427107;32;35468;-78
2022/09/06 00:54:26;;;;;;;;;;;;;;;20.77;54.91;100941.91;5407447;32;34742;-87
2022/09/06 00:57:29;;;;;;;;;;;;;;;21.18;53.85;100937.97;5414367;32;34892;-86
2022/09/06 01:00:31;;;;;;;;;;;;;;;21.18;53.58;100941.50;5419890;32;34526;-87
2022/09/06 01:03:33;;;;;;;;;;;;;;;20.53;55.44;100936.50;5420796;32;35588;-68
2022/09/06 01:07:05;;;;;;;;;;;;;;;20.83;54.67;100938.78;5423346;32;34701;-78
2022/09/06 01:10:15;;;;;;;;;;;;;;;21.39;52.82;100948.94;5399068;32;34735;-77
2022/09/06 01:13:26;;;;;;;;;;;;;;;21.64;51.73;100927.38;5431927;32;37640;-86
2022/09/06 01:16:28;;;;;;;;;;;;;;;20.77;54.52;100936.56;5426546;32;35026;-69
2022/09/06 01:19:48;;;;;;;;;;;;;;;21.34;52.67;100941.25;5420453;32;35132;-87
2022/09/06 01:23:08;;;;;;;;;;;;;;;21.15;53.54;100941.75;5432931;32;44481;-88
2022/09/06 01:26:19;;;;;;;;;;;;;;;21.32;53.16;100944.06;5428167;32;34762;-68
2022/09/06 01:29:33;;;;;;;;;;;;;;;21.01;53.16;100941.94;5436756;32;45143;-87
2022/09/06 01:32:39;;;;;;;;;;;;;;;21.04;53.36;100939.00;5428266;32;34647;-77
2022/09/06 01:35:48;;;;;;;;;;;;;;;21.53;52.14;100935.37;5415596;32;34843;-68
2022/09/06 01:38:50;;;;;;;;;;;;;;;20.48;54.64;100942.22;5428544;32;44689;-86
2022/09/06 01:41:52;;;;;;;;;;;;;;;20.54;54.92;100946.22;5411235;32;35424;-87
2022/09/06 01:44:55;;;;;;;;;;;;;;;20.76;54.51;100935.72;5435000;32;34466;-88
2022/09/06 01:48:03;;;;;;;;;;;;;;;20.69;54.55;100926.44;5420040;32;35081;-87
2022/09/06 01:51:08;;;;;;;;;;;;;;;20.73;54.70;100935.91;5412141;32;34815;-68
2022/09/06 01:54:27;;;;;;;;;;;;;;;21.39;52.79;100933.75;5428784;32;34465;-77
2022/09/06 01:57:41;;;;;;;;;;;;;;;20.47;55.53;100931.63;5397761;32;34865;-87
2022/09/06 02:01:01;;;;;;;;;;;;;;;20.62;55.40;100922.50;5422254;32;34932;-68
2022/09/06 02:04:22;;;;;;;;;;;;;;;20.25;56.05;100916.25;5418888;32;33242;-86
2022/09/06 02:07:24;;;;;;;;;;;;;;;20.39;55.46;100915.25;5423356;32;43378;-76
2022/09/06 02:10:27;;;;;;;;;;;;;;;20.89;54.21;100919.63;5425306;32;34849;-76
2022/09/06 02:13:34;;;;;;;;;;;;;;;21.20;52.99;100928.06;5411463;32;35432;-88
2022/09/06 02:16:36;;;;;;;;;;;;;;;21.83;51.43;100918.75;5432866;32;35041;-76
2022/09/06 02:19:42;;;;;;;;;;;;;;;21.89;50.68;100920.97;5421302;32;35033;-77
2022/09/06 02:22:44;;;;;;;;;;;;;;;21.45;51.79;100917.25;5418631;32;34641;-69
2022/09/06 02:25:49;;;;;;;;;;;;;;;21.32;52.60;100922.66;5426099;32;35441;-68
2022/09/06 02:28:51;;;;;;;;;;;;;;;21.70;51.43;100916.19;5411906;32;44857;-68
2022/09/06 02:31:55;;;;;;;;;;;;;;;21.21;52.70;100913.72;5443932;32;35002;-88
2022/09/06 02:34:57;;;;;;;;;;;;;;;21.38;52.15;100907.94;5416671;32;34701;-76
2022/09/06 02:37:59;;;;;;;;;;;;;;;21.66;51.24;100913.88;5428117;32;35010;-88
2022/09/06 02:41:01;;;;;;;;;;;;;;;21.33;51.55;100920.84;5413558;32;35920;-69
2022/09/06 02:44:02;;;;;;;;;;;;;;;21.56;51.17;100917.25;5437353;32;34720;-87
2022/09/06 02:47:04;;;;;;;;;;;;;;;21.03;52.98;100908.78;5427991;32;35320;-76
2022/09/06 02:50:07;;;;;;;;;;;;;;;21.73;50.79;100905.25;5429023;32;34178;-69
2022/09/06 02:53:09;;;;;;;;;;;;;;;21.65;50.44;100907.69;5430966;32;34451;-69
2022/09/06 02:56:11;;;;;;;;;;;;;;;21.46;50.55;100918.09;5386994;32;34345;-68
2022/09/06 02:59:13;;;;;;;;;;;;;;;21.20;51.25;100920.03;5438704;32;34099;-69
2022/09/06 03:02:15;;;;;;;;;;;;;;;20.52;52.86;100914.31;5414260;32;35302;-76
2022/09/06 03:05:17;;;;;;;;;;;;;;;20.89;52.22;100914.28;5413196;32;34308;-88
2022/09/06 03:08:21;;;;;;;;;;;;;;;20.91;51.84;100908.81;5436380;32;36103;-68
2022/09/06 03:11:22;;;;;;;;;;;;;;;21.34;49.91;100890.47;5404399;32;35470;-69
2022/09/06 03:14:24;;;;;;;;;;;;;;;20.90;51.08;100907.97;5438730;32;34797;-69
2022/09/06 03:17:26;;;;;;;;;;;;;;;20.78;51.56;100908.88;5413442;32;34547;-68
2022/09/06 03:20:28;;;;;;;;;;;;;;;20.88;50.88;100912.59;5442724;32;34837;-68
2022/09/06 03:23:38;;;;;;;;;;;;;;;21.28;49.99;100910.50;5413190;32;34210;-88
2022/09/06 03:26:40;;;;;;;;;;;;;;;20.15;53.56;100907.19;5414018;32;35266;-69
2022/09/06 03:29:42;;;;;;;;;;;;;;;20.61;52.44;100920.81;5437533;32;35054;-88
2022/09/06 03:32:44;;;;;;;;;;;;;;;20.19;54.02;100916.69;5428230;32;34795;-78
2022/09/06 03:36:06;;;;;;;;;;;;;;;20.30;54.12;100914.13;5425713;32;34093;-77
2022/09/06 03:39:08;;;;;;;;;;;;;;;20.07;55.32;100915.72;5414419;32;34327;-69
2022/09/06 03:42:10;;;;;;;;;;;;;;;20.29;54.56;100918.59;5420156;32;35003;-68
2022/09/06 03:45:12;;;;;;;;;;;;;;;20.28;54.63;100918.69;5427364;32;34701;-87
2022/09/06 03:48:14;;;;;;;;;;;;;;;20.75;53.57;100909.13;5414668;32;34712;-69
2022/09/06 03:51:16;;;;;;;;;;;;;;;20.77;53.23;100904.50;5427931;32;35251;-88
2022/09/06 03:54:18;;;;;;;;;;;;;;;20.43;53.38;100914.09;5413501;32;45164;-69
2022/09/06 03:57:20;;;;;;;;;;;;;;;19.97;54.94;100907.53;5405785;32;35618;-69
2022/09/06 04:00:22;;;;;;;;;;;;;;;20.23;54.22;100927.03;5416397;32;37035;-87
2022/09/06 04:03:24;;;;;;;;;;;;;;;20.61;53.02;100926.16;5425678;32;35512;-69
2022/09/06 04:06:27;;;;;;;;;;;;;;;20.14;54.11;100910.81;5420501;32;35210;-76
2022/09/06 04:09:28;;;;;;;;;;;;;;;20.05;54.24;100922.16;5412740;32;34609;-69
2022/09/06 04:12:30;;;;;;;;;;;;;;;19.20;56.89;100916.38;5429314;32;35317;-69
2022/09/06 04:15:32;;;;;;;;;;;;;;;19.41;56.31;100916.75;5415247;32;35587;-88
2022/09/06 04:18:34;;;;;;;;;;;;;;;19.31;56.25;100916.47;5435837;32;34932;-68
2022/09/06 04:21:36;;;;;;;;;;;;;;;19.68;55.37;100916.69;5413706;32;35031;-69
2022/09/06 04:24:38;;;;;;;;;;;;;;;20.47;53.28;100912.91;5425339;32;34147;-88
2022/09/06 04:27:40;;;;;;;;;;;;;;;20.86;51.54;100922.50;5424784;32;34107;-88
2022/09/06 04:30:41;;;;;;;;;;;;;;;20.21;53.50;100931.63;5415138;32;35224;-69
2022/09/06 04:33:43;;;;;;;;;;;;;;;20.46;52.82;100932.56;5431294;32;35095;-88
2022/09/06 04:36:45;;;;;;;;;;;;;;;20.57;52.65;100923.81;5426120;32;34206;-88
2022/09/06 04:39:49;;;;;;;;;;;;;;;21.17;50.68;100930.94;5434312;32;46063;-68
2022/09/06 04:42:51;;;;;;;;;;;;;;;20.62;51.94;100929.69;5409666;32;35355;-88
2022/09/06 04:45:53;;;;;;;;;;;;;;;20.91;51.22;100933.72;5418104;32;34847;-68
2022/09/06 04:48:55;;;;;;;;;;;;;;;20.27;53.01;100925.00;5431444;32;34387;-88
2022/09/06 04:51:57;;;;;;;;;;;;;;;20.11;53.38;100927.06;5410930;32;36087;-68
2022/09/06 04:54:59;;;;;;;;;;;;;;;21.23;50.00;100914.44;5414318;32;35155;-88
2022/09/06 04:58:02;;;;;;;;;;;;;;;20.83;51.27;100920.09;5402283;32;35340;-69
2022/09/06 05:01:04;;;;;;;;;;;;;;;20.94;51.11;100921.97;5430231;32;34588;-69
2022/09/06 05:04:06;;;;;;;;;;;;;;;20.19;52.86;100922.03;5410094;32;34186;-87
2022/09/06 05:07:08;;;;;;;;;;;;;;;20.25;52.93;100918.94;5413509;32;34698;-69
2022/09/06 05:10:10;;;;;;;;;;;;;;;20.12;53.44;100908.25;5417453;32;35361;-87
2022/09/06 05:13:12;;;;;;;;;;;;;;;20.53;52.05;100916.00;5418063;32;34971;-69
2022/09/06 05:16:14;;;;;;;;;;;;;;;20.54;51.63;100922.19;5429833;32;34972;-69
2022/09/06 05:19:16;;;;;;;;;;;;;;;21.07;51.21;100914.75;5417539;32;34119;-68
2022/09/06 05:22:18;;;;;;;;;;;;;;;21.52;49.53;100921.16;5433702;32;45959;-88
2022/09/06 05:25:20;;;;;;;;;;;;;;;21.02;50.60;100920.44;5405558;32;35644;-70
2022/09/06 05:28:22;;;;;;;;;;;;;;;21.02;49.80;100925.78;5402188;32;35576;-87
2022/09/06 05:31:30;;;;;;;;;;;;;;;21.42;48.40;100914.78;5424892;32;35536;-71
2022/09/06 05:34:32;;;;;;;;;;;;;;;21.33;48.17;100919.03;5400408;32;34559;-73
2022/09/06 05:37:34;;;;;;;;;;;;;;;21.49;48.11;100917.84;5421438;32;34176;-72
2022/09/06 05:40:36;;;;;;;;;;;;;;;22.12;45.93;100911.16;5408394;32;34021;-71
2022/09/06 05:43:38;;;;;;;;;;;;;;;22.19;45.39;100907.03;5420152;32;35298;-71
2022/09/06 05:46:41;;;;;;;;;;;;;;;22.33;43.94;100919.31;5406902;32;34749;-73
2022/09/06 05:49:43;;;;;;;;;;;;;;;21.76;44.09;100926.41;5401031;32;34243;-73
2022/09/06 05:52:44;;;;;;;;;;;;;;;21.45;45.17;100930.62;5416193;32;35111;-75
2022/09/06 05:55:47;;;;;;;;;;;;;;;22.07;44.17;100926.69;5390989;32;35905;-73
2022/09/06 05:58:49;;;;;;;;;;;;;;;22.53;42.55;100921.22;5416361;32;43840;-72
2022/09/06 06:01:51;;;;;;;;;;;;;;;22.90;41.25;100911.09;5406581;32;35322;-69
2022/09/06 06:04:53;;;;;;;;;;;;;;;21.94;41.13;100917.94;5425371;32;33578;-68
2022/09/06 06:07:56;;;;;;;;;;;;;;;20.79;44.08;100923.94;5400432;32;34275;-76
2022/09/06 06:10:59;;;;;;;;;;;;;;;22.52;41.30;100916.00;5390322;32;34818;-72
2022/09/06 06:14:01;;;;;;;;;;;;;;;22.05;41.78;100916.13;5407041;32;36017;-69
2022/09/06 06:17:03;;;;;;;;;;;;;;;23.41;38.72;100918.44;5409726;32;34741;-78
2022/09/06 06:20:05;;;;;;;;;;;;;;;24.78;35.37;100916.31;5414524;32;34469;-82
2022/09/06 06:23:07;;;;;;;;;;;;;;;24.64;35.53;100908.63;5405330;32;34766;-70
2022/09/06 06:26:10;;;;;;;;;;;;;;;26.21;32.48;100909.25;5426940;32;34104;-75
2022/09/06 06:29:13;;;;;;;;;;;;;;;26.00;32.40;100914.00;5403869;32;35195;-71
2022/09/06 06:32:15;;;;;;;;;;;;;;;26.42;32.21;100906.34;5400836;32;32604;-73
2022/09/06 06:35:17;;;;;;;;;;;;;;;27.65;29.90;100908.41;5411010;32;33103;-82
2022/09/06 06:38:19;;;;;;;;;;;;;;;27.79;28.64;100899.75;5402908;32;36831;-83
2022/09/06 06:41:22;;;;;;;;;;;;;;;26.88;29.47;100905.34;5416087;32;35863;-79
2022/09/06 06:44:26;;;;;;;;;;;;;;;27.26;29.92;100909.62;5403869;32;35855;-74
2022/09/06 06:47:30;;;;;;;;;;;;;;;28.91;26.45;100902.25;5413539;32;34063;-77
2022/09/06 06:50:32;;;;;;;;;;;;;;;27.67;27.68;100909.09;5410564;32;34713;-75
2022/09/06 06:53:34;;;;;;;;;;;;;;;28.72;26.47;100916.06;5403153;32;34668;-83
2022/09/06 06:56:37;;;;;;;;;;;;;;;28.52;27.50;100913.66;5409429;32;34059;-84
2022/09/06 06:59:39;;;;;;;;;;;;;;;29.58;25.22;100915.72;5413413;32;35477;-80
2022/09/06 07:02:41;;;;;;;;;;;;;;;29.07;26.09;100915.84;5409510;32;35108;-80
2022/09/06 07:05:45;;;;;;;;;;;;;;;29.19;25.74;100912.81;5402024;32;35280;-65
2022/09/06 07:09:07;;;;;;;;;;;;;;;28.49;26.63;100921.25;5399909;32;34580;-67
2022/09/06 07:12:09;;;;;;;;;;;;;;;29.75;24.96;100911.13;5417668;32;34108;-66
2022/09/06 07:15:11;;;;;;;;;;;;;;;28.12;27.31;100916.16;5399704;32;35618;-68
2022/09/06 07:18:16;;;;;;;;;;;;;;;29.94;24.74;100908.03;5418516;32;34332;-67
2022/09/06 07:21:19;;;;;;;;;;;;;;;29.60;25.28;100917.22;5404254;32;44564;-74
2022/09/06 07:24:38;;;;;;;;;;;;;;;28.79;26.27;100911.72;5420211;32;34197;-71
2022/09/06 07:27:43;;;;;;;;;;;;;;;28.24;26.98;100921.13;5418519;32;34296;-70
2022/09/06 07:30:46;;;;;;;;;;;;;;;29.58;25.48;100922.00;5411388;32;34120;-75
2022/09/06 07:33:48;;;;;;;;;;;;;;;28.65;26.52;100925.84;5414528;32;44468;-69
2022/09/06 07:36:56;;;;;;;;;;;;;;;28.38;27.28;100919.69;5405664;32;34142;-68
2022/09/06 07:39:59;;;;;;;;;;;;;;;29.58;25.50;100927.41;5425885;32;35542;-82
2022/09/06 07:43:01;;;;;;;;;;;;;;;28.79;26.53;100926.09;5409942;32;35595;-92
2022/09/06 07:46:04;;;;;;;;;;;;;;;29.84;25.59;100910.09;5410701;32;35500;-69
2022/09/06 07:49:06;;;;;;;;;;;;;;;30.72;24.38;100912.66;5410383;32;35133;-70
2022/09/06 07:52:09;;;;;;;;;;;;;;;30.07;25.13;100910.19;5394052;32;34751;-67
2022/09/06 07:55:31;;;;;;;;;;;;;;;30.06;24.92;100913.94;5392956;32;34046;-76
2022/09/06 07:58:33;;;;;;;;;;;;;;;30.15;25.15;100921.91;5386647;32;35042;-72
2022/09/06 08:01:36;;;;;;;;;;;;;;;32.75;21.88;100912.59;5413634;32;34902;-72
2022/09/06 08:04:41;;;;;;;;;;;;;;;30.25;24.82;100910.84;5398483;32;33138;-72
2022/09/06 08:07:43;;;;;;;;;;;;;;;32.77;21.89;100907.78;5395034;32;35422;-69
2022/09/06 08:10:48;;;;;;;;;;;;;;;29.23;26.58;100917.72;5417038;32;34583;-76
2022/09/06 08:13:53;;;;;;;;;;;;;;;28.81;26.97;100915.09;5401542;32;46260;-76
2022/09/06 08:16:55;;;;;;;;;;;;;;;27.52;29.39;100925.03;5411700;32;34203;-77
2022/09/06 08:19:57;;;;;;;;;;;;;;;29.01;27.30;100919.22;5407277;32;36571;-75
2022/09/06 08:22:59;;;;;;;;;;;;;;;28.56;27.89;100909.62;5406067;32;35400;-75
2022/09/06 08:26:01;;;;;;;;;;;;;;;28.69;27.81;100916.41;5408458;32;34129;-78
2022/09/06 08:29:05;;;;;;;;;;;;;;;30.84;24.35;100896.84;5401516;32;34116;-71
2022/09/06 08:32:07;;;;;;;;;;;;;;;30.49;25.22;100896.34;5389126;32;34076;-77
2022/09/06 08:35:09;;;;;;;;;;;;;;;28.41;28.62;100905.00;5367054;32;34612;-72
2022/09/06 08:38:11;;;;;;;;;;;;;;;28.12;28.81;100899.94;5373379;32;35423;-66
2022/09/06 08:41:13;;;;;;;;;;;;;;;29.23;27.59;100893.34;5393179;32;34053;-76
2022/09/06 08:44:22;;;;;;;;;;;;;;;29.19;27.52;100902.84;5389471;32;35268;-87
2022/09/06 08:47:44;;;;;;;;;;;;;;;29.96;26.61;100884.31;5410982;32;34806;-80
2022/09/06 08:50:50;;;;;;;;;;;;;;;29.94;27.00;100889.06;5407287;32;34008;-79
2022/09/06 08:53:57;;;;;;;;;;;;;;;28.43;29.10;100894.87;5431565;32;44367;-70
2022/09/06 08:56:59;;;;;;;;;;;;;;;27.75;30.28;100883.00;5385815;32;34954;-73
2022/09/06 09:00:07;;;;;;;;;;;;;;;30.16;26.94;100879.38;5402859;32;35305;-75
2022/09/06 09:03:13;;;;;;;;;;;;;;;31.21;25.66;100877.91;5411125;32;34293;-67
2022/09/06 09:06:17;;;;;;;;;;;;;;;30.42;26.77;100881.81;5401791;32;43565;-73
2022/09/06 09:09:20;;;;;;;;;;;;;;;30.82;26.03;100885.31;5412290;32;34136;-74
2022/09/06 09:12:23;;;;;;;;;;;;;;;30.12;26.84;100876.16;5397800;32;1067055;-84
2022/09/06 09:15:26;;;;;;;;;;;;;;;30.32;26.48;100873.88;5415916;32;20068;-73
2022/09/06 09:18:30;;;;;;;;;;;;;;;29.35;27.94;100891.16;5400038;32;33420;-68
2022/09/06 09:21:33;;;;;;;;;;;;;;;28.41;29.53;100873.41;5402943;32;32973;-72
2022/09/06 09:24:35;;;;;;;;;;;;;;;30.15;27.09;100858.72;5413793;32;34952;-74
2022/09/06 09:27:38;;;;;;;;;;;;;;;29.93;27.55;100861.13;5397293;32;31313;-72
2022/09/06 09:30:45;;;;;;;;;;;;;;;29.91;27.95;100854.19;5412274;32;34689;-74
2022/09/06 09:33:49;;;;;;;;;;;;;;;29.98;27.88;100857.03;5402916;32;45109;-74
2022/09/06 09:37:11;;;;;;;;;;;;;;;28.45;30.25;100863.94;5416874;32;32783;-72
2022/09/06 09:40:39;;;;;;;;;;;;;;;28.95;29.05;100854.97;5415361;32;34817;-82
2022/09/06 09:43:41;;;;;;;;;;;;;;;29.53;28.99;100843.13;5398004;32;34061;-77
2022/09/06 09:46:43;;;;;;;;;;;;;;;31.11;26.61;100831.16;5415879;32;32968;-77
2022/09/06 09:49:45;;;;;;;;;;;;;;;32.58;24.49;100832.22;5391182;32;34102;-77
2022/09/06 09:52:47;;;;;;;;;;;;;;;31.76;25.43;100830.53;5420081;32;44675;-75
2022/09/06 09:55:56;;;;;;;;;;;;;;;33.14;23.84;100825.06;5386342;32;34263;-77
2022/09/06 09:58:58;;;;;;;;;;;;;;;32.25;25.06;100820.94;5406485;32;35322;-77
2022/09/06 10:02:00;;;;;;;;;;;;;;;34.28;22.69;100813.00;5419060;32;34340;-75
2022/09/06 10:05:04;;;;;;;;;;;;;;;35.88;20.73;100799.19;5404993;32;34104;-75
2022/09/06 10:08:10;;;;;;;;;;;;;;;33.26;23.86;100802.72;5409059;32;32782;-74
2022/09/06 10:11:13;;;;;;;;;;;;;;;34.27;22.62;100805.88;5397742;32;34239;-78
2022/09/06 10:14:44;;;;;;;;;;;;;;;32.99;24.05;100802.53;5407337;32;32999;-83
2022/09/06 10:17:48;;;;;;;;;;;;;;;31.45;26.58;100794.56;5359703;32;33598;-69
2022/09/06 10:20:52;;;;;;;;;;;;;;;31.53;26.29;100797.16;5406192;32;44258;-77
2022/09/06 10:24:23;;;;;;;;;;;;;;;31.69;26.23;100793.44;5410345;32;34047;-73
2022/09/06 10:27:32;;;;;;;;;;;;;;;29.78;28.71;100794.28;5383465;32;33565;-74
2022/09/06 10:30:35;;;;;;;;;;;;;;;30.59;27.99;100785.75;5412524;32;31915;-75
2022/09/06 10:33:55;;;;;;;;;;;;;;;29.94;29.20;100778.78;5414240;32;33114;-91
2022/09/06 10:37:16;;;;;;;;;;;;;;;31.70;26.92;100768.78;5418211;32;34719;-73
2022/09/06 10:40:22;;;;;;;;;;;;;;;29.90;29.18;100765.81;5422740;32;44324;-70
2022/09/06 10:43:24;;;;;;;;;;;;;;;29.75;29.69;100773.81;5404097;32;34231;-85
2022/09/06 10:46:27;;;;;;;;;;;;;;;30.12;29.32;100769.59;5405991;32;33039;-85
2022/09/06 10:49:29;;;;;;;;;;;;;;;30.50;28.68;100764.28;5435231;32;31982;-77
2022/09/06 10:52:32;;;;;;;;;;;;;;;30.55;28.63;100757.31;5405566;32;32970;-77
2022/09/06 10:55:34;;;;;;;;;;;;;;;29.49;30.46;100765.91;5402013;32;34124;-78
2022/09/06 10:58:39;;;;;;;;;;;;;;;29.37;30.68;100753.78;5394240;32;34283;-73
2022/09/06 11:02:19;;;;;;;;;;;;;;;29.23;31.16;100759.88;5408583;32;33678;-76
2022/09/06 11:05:26;;;;;;;;;;;;;;;30.81;28.77;100756.94;5413487;32;44958;-74
2022/09/06 11:08:49;;;;;;;;;;;;;;;31.04;28.39;100759.63;5408511;32;32774;-77
2022/09/06 11:11:58;;;;;;;;;;;;;;;30.80;28.61;100762.56;5430150;32;44470;-83
2022/09/06 11:15:00;;;;;;;;;;;;;;;30.39;29.45;100752.81;5408711;32;32553;-79
2022/09/06 11:18:17;;;;;;;;;;;;;;;30.64;29.24;100745.34;5413304;32;33138;-75
2022/09/06 11:21:22;;;;;;;;;;;;;;;30.08;29.64;100744.72;5418309;32;46304;-88
2022/09/06 11:24:30;;;;;;;;;;;;;;;31.20;27.93;100736.91;5421985;32;33241;-85
2022/09/06 11:27:36;;;;;;;;;;;;;;;30.62;28.92;100742.00;5408624;32;33108;-87
2022/09/06 11:30:41;;;;;;;;;;;;;;;31.07;28.07;100723.97;5406616;32;34301;-81
2022/09/06 11:33:43;;;;;;;;;;;;;;;33.76;24.84;100719.84;5412858;32;34081;-78
2022/09/06 11:36:46;;;;;;;;;;;;;;;33.41;25.02;100711.69;5411717;32;33086;-73
2022/09/06 11:40:11;;;;;;;;;;;;;;;33.29;24.65;100715.16;5419959;32;44631;-92
2022/09/06 11:43:45;;;;;;;;;;;;;;;35.11;22.94;100707.91;5420824;32;34181;-76
2022/09/06 11:46:47;;;;;;;;;;;;;;;35.50;22.41;100704.28;5399771;32;33241;-81
2022/09/06 11:49:49;;;;;;;;;;;;;;;34.80;22.64;100708.56;5425737;32;44693;-86
2022/09/06 11:52:54;;;;;;;;;;;;;;;33.80;24.34;100707.47;5420712;32;33630;-76
2022/09/06 11:55:57;;;;;;;;;;;;;;;31.44;27.54;100709.50;5403788;32;34741;-73
2022/09/06 11:59:20;;;;;;;;;;;;;;;33.05;25.49;100702.88;5424092;32;32953;-80
2022/09/06 12:02:37;;;;;;;;;;;;;;;33.74;24.13;100688.37;5397999;32;44277;-73
2022/09/06 12:06:02;;;;;;;;;;;;;;;31.86;26.98;100707.13;5409173;32;32635;-81
2022/09/06 12:09:27;;;;;;;;;;;;;;;33.46;24.66;100683.88;5417406;32;34794;-82
2022/09/06 12:12:38;;;;;;;;;;;;;;;34.74;22.63;100676.63;5404053;32;34265;-79
2022/09/06 12:15:44;;;;;;;;;;;;;;;34.95;21.82;100679.16;5416146;32;32895;-81
2022/09/06 12:18:46;;;;;;;;;;;;;;;35.84;20.91;100671.31;5402215;32;33173;-81
2022/09/06 12:21:51;;;;;;;;;;;;;;;35.64;21.34;100671.41;5409145;32;44516;-91
2022/09/06 12:24:56;;;;;;;;;;;;;;;37.80;18.89;100659.84;5415158;32;32848;-72
2022/09/06 12:27:59;;;;;;;;;;;;;;;40.22;15.85;100667.63;5403388;32;34644;-78
2022/09/06 12:31:16;;;;;;;;;;;;;;;38.11;17.65;100651.34;5421943;32;33064;-75
2022/09/06 12:34:23;;;;;;;;;;;;;;;34.23;22.45;100658.13;5413172;32;44025;-75
2022/09/06 12:37:32;;;;;;;;;;;;;;;34.39;21.87;100635.91;5417960;32;34366;-76
2022/09/06 12:40:39;;;;;;;;;;;;;;;33.40;23.53;100636.47;5409906;32;34185;-76
2022/09/06 12:43:43;;;;;;;;;;;;;;;31.64;25.56;100639.12;5408576;32;33095;-70
2022/09/06 12:46:46;;;;;;;;;;;;;;;32.21;25.55;100627.44;5421325;32;33174;-80
2022/09/06 12:50:07;;;;;;;;;;;;;;;32.48;25.13;100623.09;5402628;32;44666;-75
2022/09/06 12:53:20;;;;;;;;;;;;;;;32.49;24.62;100622.03;5421775;32;34085;-77
2022/09/06 12:56:25;;;;;;;;;;;;;;;31.84;25.81;100631.25;5392126;32;44336;-74
2022/09/06 12:59:28;;;;;;;;;;;;;;;31.87;25.59;100625.41;5410649;32;35384;-80
2022/09/06 13:02:35;;;;;;;;;;;;;;;33.83;22.75;100608.94;5432716;32;33260;-78
2022/09/06 13:05:38;;;;;;;;;;;;;;;32.35;24.61;100609.38;5407347;32;34063;-72
2022/09/06 13:08:45;;;;;;;;;;;;;;;34.43;21.97;100600.84;5419124;32;32828;-76
2022/09/06 13:11:50;;;;;;;;;;;;;;;33.27;23.35;100595.53;5407862;32;43207;-76
2022/09/06 13:14:53;;;;;;;;;;;;;;;34.33;22.25;100587.62;5387915;32;43354;-76
2022/09/06 13:18:14;;;;;;;;;;;;;;;32.02;25.07;100599.03;5422898;32;33485;-76
2022/09/06 13:21:23;;;;;;;;;;;;;;;31.88;25.22;100572.75;5400811;32;33636;-77
2022/09/06 13:24:38;;;;;;;;;;;;;;;32.54;24.66;100577.94;5414009;32;46008;-72
2022/09/06 13:27:49;;;;;;;;;;;;;;;31.40;25.33;100582.44;5392778;32;34118;-78
2022/09/06 13:31:02;;;;;;;;;;;;;;;29.74;27.57;100587.91;5391698;32;45448;-76
2022/09/06 13:34:04;;;;;;;;;;;;;;;29.42;28.41;100583.50;5416460;32;32894;-75
2022/09/06 13:37:07;;;;;;;;;;;;;;;30.48;27.00;100567.34;5410364;32;34143;-75
2022/09/06 13:40:28;;;;;;;;;;;;;;;30.67;26.84;100571.41;5430714;32;32929;-76
2022/09/06 13:43:33;;;;;;;;;;;;;;;29.88;27.91;100570.91;5406371;32;32698;-71
2022/09/06 13:46:35;;;;;;;;;;;;;;;30.56;27.20;100571.00;5398574;32;32768;-72
2022/09/06 13:49:37;;;;;;;;;;;;;;;31.01;26.70;100561.88;5418398;32;35112;-72
2022/09/06 13:52:39;;;;;;;;;;;;;;;30.96;26.79;100561.59;5397534;32;32983;-75
2022/09/06 13:55:43;;;;;;;;;;;;;;;29.76;28.79;100561.50;5398027;32;33887;-79
2022/09/06 13:58:46;;;;;;;;;;;;;;;28.98;30.16;100556.16;5412298;32;34480;-72
2022/09/06 14:01:49;;;;;;;;;;;;;;;29.11;30.34;100554.59;5408942;32;44519;-82
2022/09/06 14:04:51;;;;;;;;;;;;;;;29.80;29.37;100552.00;5392153;32;35695;-82
2022/09/06 14:07:53;;;;;;;;;;;;;;;29.61;29.77;100550.59;5406974;32;34072;-75
2022/09/06 14:10:55;;;;;;;;;;;;;;;29.54;29.97;100548.78;5415798;32;35311;-75
2022/09/06 14:13:57;;;;;;;;;;;;;;;28.97;31.10;100555.31;5397383;32;34284;-82
2022/09/06 14:16:59;;;;;;;;;;;;;;;29.34;30.65;100556.50;5407084;32;34471;-75
2022/09/06 14:20:02;;;;;;;;;;;;;;;29.34;30.60;100543.78;5417963;32;32949;-76
2022/09/06 14:23:04;;;;;;;;;;;;;;;28.87;31.33;100543.84;5429847;32;33364;-81
2022/09/06 14:26:06;;;;;;;;;;;;;;;29.91;29.67;100535.31;5417825;32;33949;-77
2022/09/06 14:29:08;;;;;;;;;;;;;;;28.82;31.79;100538.94;5404676;32;33208;-75
2022/09/06 14:32:10;;;;;;;;;;;;;;;29.60;30.58;100539.94;5444440;32;33675;-76
2022/09/06 14:35:12;;;;;;;;;;;;;;;29.44;31.09;100538.19;5416813;32;34094;-75
2022/09/06 14:38:14;;;;;;;;;;;;;;;29.08;31.91;100538.69;5433985;32;33688;-81
2022/09/06 14:41:17;;;;;;;;;;;;;;;28.57;32.82;100537.31;5423262;32;33380;-75
2022/09/06 14:44:19;;;;;;;;;;;;;;;29.56;30.92;100528.66;5431755;32;44959;-76
2022/09/06 14:47:21;;;;;;;;;;;;;;;29.72;30.60;100526.84;5420901;32;33352;-75
2022/09/06 14:50:24;;;;;;;;;;;;;;;28.49;32.79;100531.94;5412423;32;33311;-75
2022/09/06 14:53:26;;;;;;;;;;;;;;;28.65;32.74;100529.19;5427177;32;32911;-84
2022/09/06 14:56:42;;;;;;;;;;;;;;;29.56;31.25;100527.78;5383697;32;32967;-76
2022/09/06 14:59:44;;;;;;;;;;;;;;;28.92;32.49;100532.50;5420765;32;32918;-81
2022/09/06 15:02:46;;;;;;;;;;;;;;;30.18;30.40;100523.06;5416541;32;33707;-82
2022/09/06 15:05:48;;;;;;;;;;;;;;;30.16;30.27;100527.84;5427079;32;45049;-76
2022/09/06 15:08:50;;;;;;;;;;;;;;;30.09;30.49;100528.75;5411716;32;33566;-75
2022/09/06 15:11:56;;;;;;;;;;;;;;;29.84;30.89;100533.53;5403546;32;33182;-75
2022/09/06 15:14:58;;;;;;;;;;;;;;;29.93;30.62;100533.25;5418392;32;33539;-74
2022/09/06 15:18:00;;;;;;;;;;;;;;;30.04;30.20;100537.41;5418120;32;33217;-81
2022/09/06 15:21:12;;;;;;;;;;;;;;;29.98;30.22;100540.00;5416750;32;33602;-82
2022/09/06 15:24:14;;;;;;;;;;;;;;;28.59;33.20;100535.28;5417868;32;33091;-83
2022/09/06 15:27:16;;;;;;;;;;;;;;;28.86;32.69;100545.69;5418774;32;33663;-81
2022/09/06 15:30:18;;;;;;;;;;;;;;;29.58;31.32;100542.00;5436492;32;46764;-76
2022/09/06 15:33:20;;;;;;;;;;;;;;;28.92;32.45;100541.50;5413343;32;33317;-81
2022/09/06 15:36:22;;;;;;;;;;;;;;;28.59;33.85;100556.91;5440141;32;33365;-76
2022/09/06 15:39:25;;;;;;;;;;;;;;;27.71;37.45;100562.19;5408507;32;33957;-86
2022/09/06 15:42:27;;;;;;;;;;;;;;;27.23;38.69;100558.31;5426963;32;33395;-81
2022/09/06 15:45:29;;;;;;;;;;;;;;;27.34;38.63;100555.31;5420683;32;33709;-81
2022/09/06 15:48:38;;;;;;;;;;;;;;;27.41;39.30;100561.75;5400131;32;33641;-81
2022/09/06 15:51:41;;;;;;;;;;;;;;;26.77;41.18;100557.75;5408844;32;32915;-82